Time;durP1;ratioP1;P1;durP2;ratioP2;P2;SDS_P1;SDS_P2;PMS_P1;PMS_P2;Temp;Humidity;BMP_temperature;BMP_pressure;BME280_temperature;BME280_humidity;BME280_pressure;Samples;Min_cycle;Max_cycle;Signal;HPM_P1;HPM_P2
2023/08/28 00:01:05;;;;;;;5.95;1.90;;;14.10;99.90;;;;;;5112006;28;20058;-82
2023/08/28 00:03:51;;;;;;;5.93;1.92;;;14.10;99.90;;;;;;5112462;28;20083;-85
2023/08/28 00:06:37;;;;;;;6.45;2.15;;;14.10;99.90;;;;;;5112634;28;20059;-85
2023/08/28 00:09:23;;;;;;;9.52;2.25;;;14.10;99.90;;;;;;5111325;28;20056;-86
2023/08/28 00:12:09;;;;;;;6.15;1.88;;;14.10;99.90;;;;;;5112971;28;20147;-84
2023/08/28 00:14:55;;;;;;;6.78;2.10;;;14.10;99.90;;;;;;5097235;28;20048;-85
2023/08/28 00:17:41;;;;;;;6.05;2.20;;;14.10;99.90;;;;;;5111586;28;20505;-78
2023/08/28 00:20:27;;;;;;;6.10;2.15;;;14.10;99.90;;;;;;5111696;28;20108;-81
2023/08/28 00:23:14;;;;;;;5.40;2.60;;;14.10;99.90;;;;;;5111151;28;20147;-74
2023/08/28 00:26:00;;;;;;;6.85;2.50;;;14.00;99.90;;;;;;5111468;28;20126;-72
2023/08/28 00:28:46;;;;;;;6.93;2.50;;;14.00;99.90;;;;;;5110070;28;20056;-72
2023/08/28 00:31:33;;;;;;;5.47;2.47;;;14.00;99.90;;;;;;5112320;28;20082;-72
2023/08/28 00:34:19;;;;;;;6.18;2.70;;;14.00;99.90;;;;;;5112989;28;20130;-71
2023/08/28 00:37:05;;;;;;;4.20;1.90;;;14.10;99.90;;;;;;5111529;28;20044;-75
2023/08/28 00:39:51;;;;;;;7.93;2.53;;;14.10;99.90;;;;;;5111112;28;20704;-79
2023/08/28 00:42:37;;;;;;;7.53;2.58;;;14.10;99.90;;;;;;5112038;28;20169;-83
2023/08/28 00:45:23;;;;;;;6.93;2.38;;;14.10;99.90;;;;;;5110215;28;20059;-73
2023/08/28 00:48:12;;;;;;;14.38;2.88;;;14.10;99.90;;;;;;5111046;28;20460;-76
2023/08/28 00:51:00;;;;;;;13.93;3.45;;;14.10;99.90;;;;;;5111048;28;20055;-82
2023/08/28 00:53:47;;;;;;;11.07;3.25;;;14.10;99.90;;;;;;5112094;28;20044;-77
2023/08/28 00:56:33;;;;;;;9.02;2.50;;;14.10;99.90;;;;;;5114027;28;20047;-73
2023/08/28 00:59:19;;;;;;;5.78;2.40;;;14.10;99.90;;;;;;5111095;28;20529;-77
2023/08/28 01:02:06;;;;;;;7.53;2.70;;;14.10;99.90;;;;;;5109993;28;20055;-75
2023/08/28 01:04:52;;;;;;;8.38;2.85;;;14.00;99.90;;;;;;5109594;28;20514;-72
2023/08/28 01:08:03;;;;;;;7.32;2.55;;;14.00;99.90;;;;;;5110542;28;20056;-75
2023/08/28 01:10:54;;;;;;;4.53;2.22;;;14.00;99.90;;;;;;5110804;28;20503;-76
2023/08/28 01:14:00;;;;;;;6.38;2.30;;;14.00;99.90;;;;;;5110300;28;20404;-71
2023/08/28 01:16:48;;;;;;;6.13;2.05;;;13.90;99.90;;;;;;5111750;28;20055;-78
2023/08/28 01:19:42;;;;;;;6.28;2.80;;;13.90;99.90;;;;;;5110494;28;20134;-71
2023/08/28 01:22:57;;;;;;;5.43;2.40;;;13.80;99.90;;;;;;5109959;28;20055;-81
2023/08/28 01:25:45;;;;;;;4.43;2.58;;;13.80;99.90;;;;;;5111185;28;20054;-71
2023/08/28 01:28:32;;;;;;;5.28;3.20;;;13.70;99.90;;;;;;5110918;28;20738;-80
2023/08/28 01:31:18;;;;;;;6.78;2.45;;;13.70;99.90;;;;;;5111660;28;20048;-84
2023/08/28 01:34:04;;;;;;;6.97;2.58;;;13.60;99.90;;;;;;5111694;28;20104;-76
2023/08/28 01:36:56;;;;;;;5.82;2.28;;;13.60;99.90;;;;;;5110700;28;20079;-75
2023/08/28 01:39:46;;;;;;;7.03;2.67;;;13.60;99.90;;;;;;5115487;28;20102;-83
2023/08/28 01:42:33;;;;;;;7.57;3.05;;;13.50;99.90;;;;;;5110442;28;20124;-82
2023/08/28 01:45:21;;;;;;;8.05;2.90;;;13.50;99.90;;;;;;5110373;28;20043;-85
2023/08/28 01:48:07;;;;;;;8.02;2.38;;;13.50;99.90;;;;;;5111165;28;20051;-79
2023/08/28 01:50:53;;;;;;;5.75;3.35;;;13.50;99.90;;;;;;5108302;28;20074;-81
2023/08/28 01:53:40;;;;;;;6.50;2.50;;;13.50;99.90;;;;;;5108631;28;20484;-80
2023/08/28 01:56:26;;;;;;;5.72;2.40;;;13.40;99.90;;;;;;5109078;28;20547;-78
2023/08/28 01:59:12;;;;;;;5.95;2.47;;;13.40;99.90;;;;;;5109869;28;20043;-70
2023/08/28 02:01:58;;;;;;;6.20;2.17;;;13.40;99.90;;;;;;5095257;28;20140;-74
2023/08/28 02:04:44;;;;;;;6.72;2.00;;;13.50;99.90;;;;;;5110465;28;20083;-73
2023/08/28 02:07:30;;;;;;;7.07;1.77;;;13.50;99.90;;;;;;5110722;28;20508;-76
2023/08/28 02:10:16;;;;;;;7.47;2.05;;;13.50;99.90;;;;;;5108201;28;20055;-77
2023/08/28 02:13:03;;;;;;;10.05;1.40;;;13.50;99.90;;;;;;5111285;28;20054;-75
2023/08/28 02:15:49;;;;;;;5.68;1.10;;;13.50;99.90;;;;;;5115940;28;20143;-72
2023/08/28 02:18:37;;;;;;;8.18;1.30;;;13.60;99.90;;;;;;5115531;28;20058;-79
2023/08/28 02:21:23;;;;;;;7.35;1.83;;;13.50;99.90;;;;;;5114860;28;20572;-81
2023/08/28 02:24:09;;;;;;;4.85;1.45;;;13.60;99.90;;;;;;5114985;28;20060;-84
2023/08/28 02:26:55;;;;;;;5.32;1.20;;;13.70;99.90;;;;;;5113831;28;20090;-76
2023/08/28 02:29:41;;;;;;;6.22;1.67;;;13.70;99.90;;;;;;5113969;28;20059;-73
2023/08/28 02:32:28;;;;;;;2.97;1.42;;;13.70;99.90;;;;;;5113755;28;20044;-83
2023/08/28 02:35:14;;;;;;;4.07;0.70;;;13.80;99.90;;;;;;5114909;28;20051;-84
2023/08/28 02:38:00;;;;;;;4.20;1.15;;;13.90;99.90;;;;;;5113291;28;20051;-77
2023/08/28 02:40:46;;;;;;;2.95;0.50;;;14.00;99.90;;;;;;5113501;28;20103;-71
2023/08/28 02:43:33;;;;;;;2.85;0.50;;;14.00;99.90;;;;;;5114619;28;20047;-78
2023/08/28 02:46:19;;;;;;;2.65;0.57;;;14.10;99.90;;;;;;5113644;28;20410;-70
2023/08/28 02:49:05;;;;;;;4.30;0.60;;;14.10;99.90;;;;;;5114617;28;20074;-77
2023/08/28 02:51:51;;;;;;;2.35;0.40;;;14.20;99.90;;;;;;5114485;28;20048;-72
2023/08/28 02:54:37;;;;;;;2.95;0.60;;;14.20;99.90;;;;;;5114295;28;20056;-83
2023/08/28 02:57:23;;;;;;;3.85;1.20;;;14.20;99.90;;;;;;5114302;28;20116;-78
2023/08/28 03:00:10;;;;;;;3.60;0.45;;;14.20;99.90;;;;;;5112843;28;20112;-78
2023/08/28 03:02:57;;;;;;;4.47;0.60;;;14.30;99.90;;;;;;5114749;28;20052;-72
2023/08/28 03:05:46;;;;;;;3.35;0.45;;;14.30;99.90;;;;;;5112985;28;20125;-73
2023/08/28 03:08:32;;;;;;;2.50;0.57;;;14.40;99.90;;;;;;5113167;28;20173;-71
2023/08/28 03:11:19;;;;;;;4.68;0.60;;;14.50;99.90;;;;;;5114334;28;20486;-71
2023/08/28 03:14:05;;;;;;;1.63;0.45;;;14.50;99.90;;;;;;5114107;28;20399;-74
2023/08/28 03:16:51;;;;;;;4.13;0.57;;;14.60;99.90;;;;;;5114316;28;20085;-76
2023/08/28 03:19:37;;;;;;;1.10;0.38;;;14.50;99.90;;;;;;5114166;28;20085;-76
2023/08/28 03:22:23;;;;;;;3.58;0.63;;;14.50;99.90;;;;;;5114402;28;20495;-75
2023/08/28 03:25:09;;;;;;;2.03;0.57;;;14.50;99.90;;;;;;5112883;28;20058;-80
2023/08/28 03:27:55;;;;;;;3.55;0.77;;;14.50;99.90;;;;;;5114353;28;20056;-72
2023/08/28 03:30:41;;;;;;;2.08;0.50;;;14.50;99.90;;;;;;5112457;28;20059;-73
2023/08/28 03:33:28;;;;;;;5.20;0.60;;;14.50;99.90;;;;;;5112277;28;20131;-79
2023/08/28 03:36:14;;;;;;;1.27;0.52;;;14.60;99.90;;;;;;5112679;28;20054;-78
2023/08/28 03:39:01;;;;;;;8.80;1.05;;;14.60;99.90;;;;;;5114493;28;20047;-73
2023/08/28 03:41:47;;;;;;;3.10;0.55;;;14.60;99.90;;;;;;5112528;28;20116;-78
2023/08/28 03:44:33;;;;;;;3.30;0.60;;;14.60;99.90;;;;;;5111720;28;20051;-75
2023/08/28 03:47:19;;;;;;;5.30;0.75;;;14.60;99.90;;;;;;5113646;28;20521;-71
2023/08/28 03:50:05;;;;;;;3.17;0.60;;;14.60;99.90;;;;;;5111962;28;20043;-75
2023/08/28 03:52:52;;;;;;;7.95;0.60;;;14.70;99.90;;;;;;5113253;28;20467;-83
2023/08/28 03:55:38;;;;;;;4.90;0.77;;;14.70;99.90;;;;;;5113233;28;20055;-80
2023/08/28 03:58:24;;;;;;;5.32;1.00;;;14.80;99.90;;;;;;5113323;28;20415;-72
2023/08/28 04:01:10;;;;;;;3.42;0.80;;;14.80;99.90;;;;;;5115275;28;20388;-71
2023/08/28 04:03:56;;;;;;;5.63;1.33;;;14.80;99.90;;;;;;5111397;28;20104;-71
2023/08/28 04:06:42;;;;;;;7.03;1.40;;;14.70;99.90;;;;;;5097531;28;20089;-78
2023/08/28 04:09:29;;;;;;;4.75;0.93;;;14.60;99.90;;;;;;5111816;28;20879;-81
2023/08/28 04:12:15;;;;;;;7.40;1.30;;;14.50;99.90;;;;;;5112889;28;20098;-74
2023/08/28 04:15:03;;;;;;;5.43;1.42;;;14.40;99.90;;;;;;5111528;28;20545;-76
2023/08/28 04:17:49;;;;;;;3.95;1.08;;;14.30;99.90;;;;;;5112687;28;20136;-77
2023/08/28 04:20:36;;;;;;;2.53;0.75;;;14.30;99.90;;;;;;5111981;28;20403;-86
2023/08/28 04:23:22;;;;;;;8.63;1.90;;;14.20;99.90;;;;;;5112427;28;20097;-73
2023/08/28 04:26:08;;;;;;;5.10;1.35;;;14.20;99.90;;;;;;5109775;28;20056;-78
2023/08/28 04:28:54;;;;;;;5.13;1.10;;;14.10;99.90;;;;;;5112539;28;20054;-75
2023/08/28 04:31:40;;;;;;;6.25;1.70;;;14.00;99.90;;;;;;5097008;28;20051;-83
2023/08/28 04:34:27;;;;;;;4.45;1.40;;;14.10;99.90;;;;;;5112749;28;20051;-72
2023/08/28 04:37:13;;;;;;;3.85;1.52;;;14.00;99.90;;;;;;5111903;28;20051;-72
2023/08/28 04:39:59;;;;;;;4.70;1.83;;;14.00;99.90;;;;;;5112522;28;20101;-73
2023/08/28 04:42:45;;;;;;;7.05;2.15;;;14.00;99.90;;;;;;5111329;28;20070;-70
2023/08/28 04:45:31;;;;;;;4.88;2.00;;;14.00;99.90;;;;;;5111654;28;20044;-75
2023/08/28 04:48:18;;;;;;;6.20;2.05;;;14.00;99.90;;;;;;5111994;28;20066;-81
2023/08/28 04:51:05;;;;;;;5.97;2.30;;;14.00;99.90;;;;;;5112743;28;20142;-73
2023/08/28 04:53:51;;;;;;;7.53;2.20;;;14.00;99.90;;;;;;5112118;28;20077;-72
2023/08/28 04:56:37;;;;;;;5.20;2.20;;;13.90;99.90;;;;;;5119188;28;20047;-80
2023/08/28 04:59:23;;;;;;;6.28;1.98;;;13.90;99.90;;;;;;5119203;28;20063;-71
2023/08/28 05:02:09;;;;;;;6.95;2.30;;;13.90;99.90;;;;;;5119388;28;20051;-71
2023/08/28 05:04:56;;;;;;;5.78;2.20;;;13.80;99.90;;;;;;5098500;28;20444;-84
2023/08/28 05:07:42;;;;;;;5.50;2.35;;;13.80;99.90;;;;;;5112022;28;20047;-85
2023/08/28 05:10:28;;;;;;;5.88;2.03;;;13.80;99.90;;;;;;5111674;28;20518;-85
2023/08/28 05:13:14;;;;;;;6.75;2.38;;;13.80;99.90;;;;;;5110645;28;20070;-76
2023/08/28 05:16:00;;;;;;;3.22;1.48;;;13.70;99.90;;;;;;5111398;28;20080;-76
2023/08/28 05:18:47;;;;;;;5.18;2.22;;;13.70;99.90;;;;;;5111850;28;20134;-83
2023/08/28 05:21:33;;;;;;;5.32;1.92;;;13.70;99.90;;;;;;5109351;28;20407;-81
2023/08/28 05:24:19;;;;;;;6.95;2.50;;;13.70;99.90;;;;;;5112183;28;20047;-81
2023/08/28 05:27:05;;;;;;;5.88;2.05;;;13.70;99.90;;;;;;5072189;28;20051;-81
2023/08/28 05:29:52;;;;;;;8.77;2.88;;;13.70;99.90;;;;;;5089919;28;20075;-80
2023/08/28 05:32:38;;;;;;;4.97;1.95;;;13.70;99.90;;;;;;5091136;28;20044;-70
2023/08/28 05:35:25;;;;;;;3.85;1.95;;;13.80;99.90;;;;;;5091876;28;20051;-72
2023/08/28 05:38:11;;;;;;;4.82;1.58;;;13.80;99.90;;;;;;5091477;28;20040;-75
2023/08/28 05:40:57;;;;;;;3.78;1.50;;;13.80;99.90;;;;;;5091435;28;20056;-71
2023/08/28 05:43:43;;;;;;;6.10;2.10;;;13.90;99.90;;;;;;5073451;28;20083;-83
2023/08/28 05:46:29;;;;;;;6.00;2.20;;;13.90;99.90;;;;;;5076432;28;20079;-80
2023/08/28 05:49:15;;;;;;;6.47;2.40;;;14.00;99.90;;;;;;5089882;28;20139;-79
2023/08/28 05:52:02;;;;;;;6.05;1.60;;;14.00;99.90;;;;;;5091425;28;20055;-85
2023/08/28 05:54:49;;;;;;;4.72;2.22;;;14.00;99.90;;;;;;5096836;28;20657;-80
2023/08/28 05:57:35;;;;;;;4.15;1.73;;;14.10;99.90;;;;;;5090817;28;20059;-75
2023/08/28 06:00:21;;;;;;;3.80;2.00;;;14.10;99.90;;;;;;5090610;28;20055;-75
2023/08/28 06:03:07;;;;;;;5.60;1.50;;;14.30;99.90;;;;;;5063593;28;20134;-75
2023/08/28 06:05:55;;;;;;;4.32;1.52;;;14.40;99.90;;;;;;5091450;28;20098;-70
2023/08/28 06:08:41;;;;;;;6.07;1.40;;;14.50;99.90;;;;;;5091685;28;20050;-83
2023/08/28 06:11:27;;;;;;;6.53;2.25;;;14.60;99.90;;;;;;5092128;28;20059;-80
2023/08/28 06:14:13;;;;;;;3.25;1.40;;;14.60;99.90;;;;;;5071213;28;20048;-75
2023/08/28 06:17:00;;;;;;;3.85;1.27;;;14.60;99.90;;;;;;5072943;28;20052;-81
2023/08/28 06:19:46;;;;;;;4.72;1.17;;;14.70;99.90;;;;;;5071432;28;20050;-79
2023/08/28 06:22:32;;;;;;;3.70;0.95;;;14.70;99.90;;;;;;5072873;28;20051;-69
2023/08/28 06:25:18;;;;;;;4.50;1.05;;;14.80;99.90;;;;;;5098474;28;20510;-84
2023/08/28 06:28:05;;;;;;;6.13;1.27;;;14.90;99.90;;;;;;5110850;28;20059;-72
2023/08/28 06:30:51;;;;;;;4.07;0.80;;;15.20;99.90;;;;;;5110752;28;20047;-73
2023/08/28 06:33:38;;;;;;;3.92;1.00;;;15.40;99.90;;;;;;5108687;28;20052;-71
2023/08/28 06:36:24;;;;;;;4.82;0.90;;;15.50;99.90;;;;;;5111109;28;20051;-76
2023/08/28 06:39:10;;;;;;;4.07;0.93;;;15.50;99.90;;;;;;5109180;28;20062;-77
2023/08/28 06:41:56;;;;;;;6.50;1.27;;;15.50;99.90;;;;;;5107804;28;20125;-70
2023/08/28 06:44:43;;;;;;;5.55;0.80;;;15.50;99.90;;;;;;5110573;28;20464;-71
2023/08/28 06:47:29;;;;;;;4.90;1.45;;;15.50;99.90;;;;;;5109172;28;20051;-76
2023/08/28 06:50:15;;;;;;;4.85;0.90;;;15.60;99.90;;;;;;5107813;28;20388;-72
2023/08/28 06:53:01;;;;;;;4.57;0.70;;;15.70;99.90;;;;;;5108036;28;20516;-71
2023/08/28 06:55:49;;;;;;;5.93;1.10;;;15.80;99.90;;;;;;5110502;28;20051;-74
2023/08/28 06:58:35;;;;;;;5.72;1.33;;;16.00;99.90;;;;;;5108939;28;20822;-69
2023/08/28 07:01:22;;;;;;;3.08;0.80;;;16.20;99.90;;;;;;5112770;28;20052;-71
2023/08/28 07:04:08;;;;;;;4.03;0.65;;;16.40;99.90;;;;;;5111923;28;20070;-81
2023/08/28 07:06:55;;;;;;;4.50;0.70;;;16.70;99.90;;;;;;5111744;28;20063;-70
2023/08/28 07:09:41;;;;;;;5.10;1.60;;;16.90;99.90;;;;;;5113747;28;20067;-73
2023/08/28 07:12:27;;;;;;;4.05;1.27;;;17.00;99.90;;;;;;5113259;28;20112;-72
2023/08/28 07:15:19;;;;;;;5.50;0.63;;;17.20;99.90;;;;;;5113107;28;20064;-72
2023/08/28 07:18:05;;;;;;;3.03;0.57;;;17.40;99.90;;;;;;5113562;28;20058;-71
2023/08/28 07:20:52;;;;;;;2.03;0.60;;;17.50;99.90;;;;;;5113452;28;20047;-72
2023/08/28 07:23:38;;;;;;;3.85;0.55;;;17.60;99.90;;;;;;5113952;28;20108;-73
2023/08/28 07:26:24;;;;;;;4.10;0.70;;;17.80;99.90;;;;;;5111256;28;20070;-72
2023/08/28 07:29:10;;;;;;;3.95;0.90;;;17.90;99.90;;;;;;5113649;28;20048;-73
2023/08/28 07:31:57;;;;;;;2.70;0.80;;;18.10;99.90;;;;;;5113866;28;20260;-77
2023/08/28 07:34:43;;;;;;;2.95;0.60;;;18.20;99.90;;;;;;5113401;28;20494;-72
2023/08/28 07:37:29;;;;;;;2.83;1.05;;;18.20;99.90;;;;;;5112276;28;20048;-76
2023/08/28 07:40:16;;;;;;;4.15;0.88;;;18.10;99.90;;;;;;5112875;28;20495;-72
2023/08/28 07:43:03;;;;;;;3.30;0.68;;;18.20;99.90;;;;;;5112514;28;20044;-73
2023/08/28 07:45:49;;;;;;;2.28;0.65;;;18.20;99.90;;;;;;5113534;28;20051;-78
2023/08/28 07:48:35;;;;;;;2.45;0.60;;;18.40;99.90;;;;;;5112704;28;20052;-74
2023/08/28 07:51:21;;;;;;;2.55;0.77;;;18.60;99.90;;;;;;5114323;28;20048;-80
2023/08/28 07:54:07;;;;;;;8.05;0.63;;;18.90;99.90;;;;;;5113433;28;20568;-77
2023/08/28 07:56:54;;;;;;;5.57;0.80;;;18.90;99.90;;;;;;5114040;28;20054;-75
2023/08/28 07:59:40;;;;;;;5.43;0.95;;;18.70;99.90;;;;;;5110774;28;20048;-83
2023/08/28 08:02:26;;;;;;;2.38;0.77;;;18.70;99.90;;;;;;5112829;28;20384;-75
2023/08/28 08:05:12;;;;;;;3.88;0.70;;;18.70;99.90;;;;;;5111053;28;20046;-75
2023/08/28 08:07:58;;;;;;;2.15;1.02;;;18.90;99.90;;;;;;5113561;28;20043;-81
2023/08/28 08:10:44;;;;;;;2.60;0.70;;;18.80;99.90;;;;;;5113131;28;20058;-74
2023/08/28 08:13:31;;;;;;;4.30;1.25;;;18.90;99.90;;;;;;5113292;28;20044;-78
2023/08/28 08:16:17;;;;;;;2.47;0.90;;;19.00;99.90;;;;;;5111640;28;20051;-74
2023/08/28 08:19:03;;;;;;;3.25;0.70;;;18.90;99.90;;;;;;5113115;28;20082;-71
2023/08/28 08:21:50;;;;;;;2.55;0.60;;;18.80;99.90;;;;;;5112219;28;20132;-75
2023/08/28 08:24:36;;;;;;;2.88;0.60;;;18.60;99.90;;;;;;5112043;28;20487;-77
2023/08/28 08:27:23;;;;;;;3.40;0.57;;;18.50;99.90;;;;;;5110733;28;20050;-75
2023/08/28 08:30:10;;;;;;;3.03;0.50;;;18.40;99.90;;;;;;5111213;28;20048;-74
2023/08/28 08:32:56;;;;;;;3.42;0.70;;;18.50;99.90;;;;;;5111522;28;20044;-70
2023/08/28 08:35:42;;;;;;;3.33;0.57;;;18.80;99.90;;;;;;5112466;28;20138;-75
2023/08/28 08:38:29;;;;;;;2.10;0.70;;;18.90;99.90;;;;;;5111307;28;20114;-74
2023/08/28 08:41:15;;;;;;;1.77;0.60;;;19.10;99.90;;;;;;5112586;28;20052;-71
2023/08/28 08:44:01;;;;;;;6.72;1.00;;;19.40;99.90;;;;;;5112358;28;20104;-72
2023/08/28 08:46:49;;;;;;;5.43;0.77;;;19.70;99.90;;;;;;5112405;28;20087;-73
2023/08/28 08:49:39;;;;;;;5.75;1.08;;;19.70;99.90;;;;;;5110007;28;20133;-82
2023/08/28 08:52:25;;;;;;;4.82;0.60;;;19.80;99.90;;;;;;5112060;28;20487;-74
2023/08/28 08:55:25;;;;;;;5.13;0.68;;;19.90;99.90;;;;;;5112403;28;20061;-73
2023/08/28 08:58:15;;;;;;;2.78;0.50;;;20.10;99.90;;;;;;5111868;28;20043;-74
2023/08/28 09:01:04;;;;;;;4.53;0.85;;;20.30;99.90;;;;;;5111925;28;20048;-71
2023/08/28 09:03:50;;;;;;;3.92;0.98;;;20.50;99.90;;;;;;5111609;28;20399;-76
2023/08/28 09:06:39;;;;;;;3.28;0.88;;;20.70;99.90;;;;;;5111988;28;20063;-71
2023/08/28 09:09:25;;;;;;;2.40;0.70;;;20.90;99.90;;;;;;5110720;28;20087;-72
2023/08/28 09:12:13;;;;;;;7.90;0.70;;;21.00;99.90;;;;;;5109895;28;20050;-71
2023/08/28 09:15:00;;;;;;;2.78;0.70;;;21.20;99.90;;;;;;5111297;28;20419;-73
2023/08/28 09:17:46;;;;;;;2.95;0.63;;;21.30;99.90;;;;;;5110800;28;20048;-73
2023/08/28 09:20:32;;;;;;;2.28;0.70;;;21.50;99.90;;;;;;5111334;28;20058;-76
2023/08/28 09:23:18;;;;;;;3.38;0.70;;;21.50;99.90;;;;;;5110959;28;20099;-73
2023/08/28 09:26:04;;;;;;;3.58;0.65;;;21.50;99.90;;;;;;5110442;28;20059;-76
2023/08/28 09:29:06;;;;;;;2.80;0.65;;;21.60;99.90;;;;;;5112014;28;20090;-72
2023/08/28 09:32:02;;;;;;;2.85;0.70;;;21.70;99.90;;;;;;5110334;28;20086;-81
2023/08/28 09:34:49;;;;;;;2.50;0.75;;;21.80;99.90;;;;;;5112209;28;20154;-82
2023/08/28 09:37:35;;;;;;;2.90;0.60;;;21.80;99.90;;;;;;5112232;28;20507;-82
2023/08/28 09:40:31;;;;;;;4.50;0.70;;;21.90;99.90;;;;;;5111595;28;20048;-73
2023/08/28 09:43:17;;;;;;;1.58;0.50;;;22.10;99.90;;;;;;5112170;28;20071;-71
2023/08/28 09:46:04;;;;;;;6.82;1.13;;;22.10;99.90;;;;;;5113771;28;20105;-76
2023/08/28 09:48:52;;;;;;;2.03;0.30;;;22.10;99.90;;;;;;5109921;28;20104;-77
2023/08/28 09:51:51;;;;;;;2.42;0.75;;;22.00;99.90;;;;;;5110134;28;20048;-73
2023/08/28 09:54:37;;;;;;;4.38;0.68;;;22.30;99.90;;;;;;5110225;28;20056;-81
2023/08/28 09:57:23;;;;;;;3.58;0.65;;;22.40;99.90;;;;;;5111066;28;20043;-77
2023/08/28 10:00:11;;;;;;;4.43;0.50;;;22.60;99.90;;;;;;5111610;28;20112;-71
2023/08/28 10:02:58;;;;;;;1.40;0.40;;;22.70;99.90;;;;;;5110395;28;20103;-75
2023/08/28 10:05:45;;;;;;;3.90;0.50;;;22.60;99.90;;;;;;5110044;28;20043;-78
2023/08/28 10:08:32;;;;;;;2.20;0.50;;;22.90;99.90;;;;;;5111785;28;20055;-77
2023/08/28 10:11:19;;;;;;;1.95;0.40;;;23.00;99.70;;;;;;5109581;28;20105;-76
2023/08/28 10:14:09;;;;;;;2.03;0.57;;;23.00;99.60;;;;;;5109876;28;20112;-74
2023/08/28 10:16:57;;;;;;;2.58;0.55;;;23.30;99.20;;;;;;5111137;28;20044;-71
2023/08/28 10:19:49;;;;;;;3.80;0.80;;;23.60;99.10;;;;;;5110341;28;20135;-73
2023/08/28 10:22:37;;;;;;;3.58;0.50;;;23.70;98.70;;;;;;5110526;28;20495;-84
2023/08/28 10:25:32;;;;;;;3.33;0.65;;;23.90;98.00;;;;;;5110548;28;20050;-75
2023/08/28 10:28:19;;;;;;;3.20;0.80;;;24.00;97.90;;;;;;5109504;28;20055;-71
2023/08/28 10:31:08;;;;;;;2.25;0.47;;;24.10;97.80;;;;;;5109264;28;20060;-75
2023/08/28 10:33:55;;;;;;;4.63;0.80;;;24.20;97.70;;;;;;5109462;28;20127;-74
2023/08/28 10:36:44;;;;;;;3.17;0.55;;;24.20;98.50;;;;;;5113458;28;20043;-73
2023/08/28 10:39:31;;;;;;;2.33;0.45;;;24.50;98.30;;;;;;5115043;28;20059;-74
2023/08/28 10:42:19;;;;;;;3.92;1.15;;;24.50;98.20;;;;;;5113720;28;20047;-71
2023/08/28 10:45:06;;;;;;;1.45;0.47;;;24.50;97.50;;;;;;5114668;28;20109;-76
2023/08/28 10:47:52;;;;;;;5.32;0.57;;;24.50;97.20;;;;;;5115159;28;20097;-74
2023/08/28 10:50:38;;;;;;;2.28;0.50;;;24.40;96.70;;;;;;5114584;28;20051;-77
2023/08/28 10:53:26;;;;;;;2.03;0.50;;;24.50;96.70;;;;;;5113787;28;20048;-74
2023/08/28 10:56:13;;;;;;;1.08;0.30;;;24.40;96.80;;;;;;5112545;28;20047;-78
2023/08/28 10:59:25;;;;;;;3.47;0.45;;;24.70;96.20;;;;;;5116087;28;20467;-74
2023/08/28 11:02:12;;;;;;;2.42;0.63;;;24.70;95.70;;;;;;5117005;28;20152;-78
2023/08/28 11:05:13;;;;;;;2.30;0.50;;;25.00;96.10;;;;;;5116631;28;20064;-79
2023/08/28 11:08:04;;;;;;;2.78;0.55;;;25.10;95.60;;;;;;5118996;28;20063;-77
2023/08/28 11:11:13;;;;;;;2.03;0.30;;;25.50;95.80;;;;;;5113955;28;20056;-82
2023/08/28 11:14:01;;;;;;;2.90;0.60;;;25.70;94.90;;;;;;5114135;28;20043;-72
2023/08/28 11:16:47;;;;;;;1.77;0.50;;;25.80;94.70;;;;;;5114212;28;20055;-77
2023/08/28 11:19:56;;;;;;;3.15;0.60;;;26.10;95.10;;;;;;5112458;28;20490;-75
2023/08/28 11:22:46;;;;;;;4.72;0.80;;;26.00;94.30;;;;;;5112875;28;20056;-74
2023/08/28 11:25:37;;;;;;;2.40;0.70;;;26.10;94.00;;;;;;5110568;28;20047;-74
2023/08/28 11:28:29;;;;;;;4.03;0.82;;;26.00;93.90;;;;;;5113197;28;20130;-73
2023/08/28 11:31:16;;;;;;;2.50;0.60;;;25.70;93.60;;;;;;5114213;28;20062;-72
2023/08/28 11:34:03;;;;;;;2.10;0.45;;;25.80;93.90;;;;;;5113280;28;20035;-78
2023/08/28 11:36:50;;;;;;;5.20;0.90;;;26.10;93.80;;;;;;5113952;28;20080;-82
2023/08/28 11:39:37;;;;;;;2.47;0.50;;;26.00;94.00;;;;;;5113089;28;20050;-75
2023/08/28 11:42:27;;;;;;;1.88;0.47;;;26.10;93.70;;;;;;5114238;28;20051;-74
2023/08/28 11:45:23;;;;;;;2.40;0.45;;;26.10;92.90;;;;;;5115480;28;20402;-73
2023/08/28 11:48:09;;;;;;;3.33;0.68;;;26.60;92.60;;;;;;5116906;28;20079;-79
2023/08/28 11:51:00;;;;;;;1.90;0.50;;;26.80;92.40;;;;;;5116636;28;20047;-79
2023/08/28 11:53:46;;;;;;;2.42;0.50;;;27.20;91.60;;;;;;5113601;28;20043;-84
2023/08/28 11:56:34;;;;;;;2.03;0.68;;;27.20;91.20;;;;;;5113513;28;20073;-82
2023/08/28 11:59:20;;;;;;;2.63;0.60;;;27.20;90.60;;;;;;5112407;28;20111;-81
2023/08/28 12:02:08;;;;;;;2.28;0.60;;;27.70;90.90;;;;;;5112199;28;20047;-76
2023/08/28 12:04:54;;;;;;;1.23;0.65;;;27.60;90.20;;;;;;5113555;28;20087;-75
2023/08/28 12:07:44;;;;;;;2.35;0.63;;;27.80;90.00;;;;;;5113563;28;20077;-80
2023/08/28 12:10:30;;;;;;;3.78;0.50;;;27.90;90.00;;;;;;5097428;28;20063;-77
2023/08/28 12:13:19;;;;;;;2.05;0.88;;;28.20;90.70;;;;;;5114083;28;20044;-79
2023/08/28 12:16:12;;;;;;;1.77;0.57;;;28.20;89.30;;;;;;5113605;28;20478;-77
2023/08/28 12:18:58;;;;;;;3.55;0.60;;;28.60;89.10;;;;;;5111434;28;20418;-78
2023/08/28 12:21:45;;;;;;;2.60;0.80;;;28.20;90.50;;;;;;5113064;28;20051;-80
2023/08/28 12:24:31;;;;;;;2.80;0.50;;;28.90;90.00;;;;;;5112756;28;20048;-72
2023/08/28 12:27:25;;;;;;;1.75;0.47;;;29.20;86.90;;;;;;5112322;28;20379;-73
2023/08/28 12:30:19;;;;;;;2.67;0.60;;;29.80;86.00;;;;;;5114258;28;20402;-77
2023/08/28 12:33:05;;;;;;;0.98;0.38;;;29.60;82.90;;;;;;5112286;28;20135;-79
2023/08/28 12:35:53;;;;;;;1.15;0.35;;;29.20;83.20;;;;;;5113544;28;20074;-73
2023/08/28 12:38:47;;;;;;;1.58;0.50;;;28.60;83.10;;;;;;5112179;28;20055;-74
2023/08/28 12:41:34;;;;;;;3.15;0.55;;;28.00;85.20;;;;;;5112641;28;20052;-73
2023/08/28 12:44:22;;;;;;;1.85;0.40;;;27.50;85.10;;;;;;5112235;28;20059;-74
2023/08/28 12:47:13;;;;;;;2.25;0.65;;;27.40;86.10;;;;;;5112268;28;20039;-73
2023/08/28 12:49:59;;;;;;;1.50;0.60;;;27.80;87.80;;;;;;5111697;28;20059;-77
2023/08/28 12:52:46;;;;;;;2.60;0.50;;;28.20;86.80;;;;;;5112330;28;20055;-76
2023/08/28 12:55:32;;;;;;;3.63;0.60;;;28.80;84.70;;;;;;5111446;28;20044;-81
2023/08/28 12:58:18;;;;;;;2.33;0.60;;;29.30;82.70;;;;;;5111314;28;20062;-72
2023/08/28 13:01:06;;;;;;;1.67;0.50;;;30.10;83.80;;;;;;5111345;28;20054;-74
2023/08/28 13:03:53;;;;;;;1.48;0.40;;;30.90;82.30;;;;;;5111687;28;20056;-71
2023/08/28 13:06:39;;;;;;;3.17;0.40;;;31.50;78.70;;;;;;5111395;28;20143;-74
2023/08/28 13:09:25;;;;;;;0.80;0.30;;;32.00;77.20;;;;;;5113815;28;20047;-72
2023/08/28 13:12:11;;;;;;;0.70;0.20;;;32.40;76.10;;;;;;5110739;28;20054;-75
2023/08/28 13:14:57;;;;;;;2.05;0.40;;;33.00;74.40;;;;;;5110444;28;20060;-72
2023/08/28 13:17:44;;;;;;;1.08;0.30;;;32.90;73.10;;;;;;5111667;28;20058;-77
2023/08/28 13:20:31;;;;;;;1.35;0.47;;;33.30;72.10;;;;;;5110499;28;20134;-73
2023/08/28 13:23:17;;;;;;;1.58;0.40;;;33.50;70.90;;;;;;5110898;28;20066;-74
2023/08/28 13:26:03;;;;;;;2.10;0.60;;;33.20;70.30;;;;;;5111135;28;20059;-77
2023/08/28 13:28:50;;;;;;;1.55;0.50;;;34.00;69.40;;;;;;5109935;28;20052;-75
2023/08/28 13:31:36;;;;;;;1.85;0.35;;;33.80;67.50;;;;;;5096633;28;20051;-72
2023/08/28 13:34:22;;;;;;;1.02;0.30;;;34.00;67.60;;;;;;5111297;28;20052;-74
2023/08/28 13:37:08;;;;;;;3.33;0.40;;;34.20;66.10;;;;;;5111960;28;20077;-78
2023/08/28 13:39:54;;;;;;;1.98;0.50;;;33.70;67.00;;;;;;5111219;28;20392;-75
2023/08/28 13:42:40;;;;;;;1.55;0.30;;;34.50;66.70;;;;;;5111304;28;20493;-76
2023/08/28 13:45:27;;;;;;;1.85;0.30;;;34.90;67.50;;;;;;5110278;28;20047;-75
2023/08/28 13:48:13;;;;;;;2.38;0.40;;;34.90;64.80;;;;;;5109912;28;20513;-74
2023/08/28 13:50:59;;;;;;;1.35;0.38;;;35.00;64.00;;;;;;5110302;28;20052;-72
2023/08/28 13:53:45;;;;;;;1.45;0.50;;;34.90;64.30;;;;;;5110062;28;20152;-77
2023/08/28 13:56:32;;;;;;;3.17;0.57;;;34.90;63.80;;;;;;5109913;28;20094;-80
2023/08/28 13:59:18;;;;;;;3.08;0.40;;;35.10;64.20;;;;;;5109567;28;20482;-72
2023/08/28 14:02:05;;;;;;;1.92;0.38;;;35.20;62.60;;;;;;5109900;28;20423;-76
2023/08/28 14:04:51;;;;;;;0.68;0.30;;;35.70;61.90;;;;;;5111350;28;20055;-76
2023/08/28 14:07:38;;;;;;;2.90;0.80;;;36.10;61.10;;;;;;5110820;28;20498;-75
2023/08/28 14:10:24;;;;;;;1.58;0.47;;;35.50;60.10;;;;;;5110156;28;20119;-82
2023/08/28 14:13:10;;;;;;;1.13;0.30;;;35.20;60.00;;;;;;5112986;28;20047;-84
2023/08/28 14:15:56;;;;;;;1.35;0.35;;;35.30;60.90;;;;;;5114380;28;20108;-75
2023/08/28 14:18:42;;;;;;;2.30;0.73;;;36.00;61.10;;;;;;5110520;28;20070;-74
2023/08/28 14:21:28;;;;;;;3.05;0.50;;;35.30;60.60;;;;;;5111095;28;20418;-76
2023/08/28 14:24:14;;;;;;;1.90;0.50;;;35.40;61.00;;;;;;5110193;28;20051;-85
2023/08/28 14:27:01;;;;;;;1.17;0.40;;;35.80;61.00;;;;;;5109648;28;20051;-79
2023/08/28 14:29:47;;;;;;;3.30;0.52;;;35.60;59.70;;;;;;5109430;28;20577;-82